UAL207 KSFO-YPAD
Flight info
| Callsign | UAL207 |
|---|---|
| Flight time | N/A |
| Altitude | 30000 |
| Route | GNNRR3 CINNY DCT 33N130W 29N135W 25N141W 22N145W 19N150W/N0509F320 12N160W 05N170W/N0503F340 DCT BOILS DCT 10S175E 15S170E/N0495F360 DCT MEPAB R587 ATROP/N0489F380 DCT MUDDL Q35 SANEG Q4 PAVBI Q16 MIA Q4 WOONA Q60 KAKLU |
| Aircraft | B77W/H-SDE1E2E3FGHIJ2J3J4J5M1RWXY/LB1D1 |
Departure
| Time | 2026-05-05 02:21 |
|---|---|
| Airport | San Francisco International Airport (KSFO) |
Arrival
| Time | N/A |
|---|---|
| Airport | Adelaide International Airport (YPAD) |
| Time | Latitude | Longitude | Altitude | Speed | Heading |
|---|---|---|---|---|---|
| 2026-05-05 01:51 | 37.61885 | -122.39158 | 26 ft | 0 kts | 208° |
| 2026-05-05 02:02 | 37.61886 | -122.39157 | 26 ft | 1 kts | 208° |
| 2026-05-05 02:02 | 37.61904 | -122.39145 | 25 ft | 3 kts | 209° |
| 2026-05-05 02:02 | 37.61922 | -122.39126 | 24 ft | 4 kts | 260° |
| 2026-05-05 02:03 | 37.61916 | -122.39098 | 24 ft | 4 kts | 301° |
| 2026-05-05 02:03 | 37.61909 | -122.39083 | 25 ft | 1 kts | 298° |
| 2026-05-05 02:03 | 37.61909 | -122.39082 | 25 ft | 1 kts | 298° |
| 2026-05-05 02:08 | 37.61912 | -122.39090 | 24 ft | 4 kts | 297° |
| 2026-05-05 02:08 | 37.61931 | -122.39135 | 25 ft | 6 kts | 297° |
| 2026-05-05 02:08 | 37.61951 | -122.39183 | 23 ft | 6 kts | 297° |
| 2026-05-05 02:08 | 37.61970 | -122.39223 | 23 ft | 6 kts | 313° |
| 2026-05-05 02:09 | 37.62002 | -122.39233 | 23 ft | 6 kts | 2° |
| 2026-05-05 02:09 | 37.62045 | -122.39221 | 25 ft | 6 kts | 20° |
| 2026-05-05 02:09 | 37.62078 | -122.39204 | 23 ft | 7 kts | 23° |
| 2026-05-05 02:09 | 37.62138 | -122.39168 | 20 ft | 11 kts | 27° |
| 2026-05-05 02:10 | 37.62202 | -122.39122 | 22 ft | 11 kts | 32° |
| 2026-05-05 02:10 | 37.62242 | -122.39046 | 24 ft | 11 kts | 68° |
| 2026-05-05 02:10 | 37.62262 | -122.38958 | 20 ft | 11 kts | 81° |
| 2026-05-05 02:10 | 37.62248 | -122.38868 | 19 ft | 11 kts | 113° |
| 2026-05-05 02:11 | 37.62214 | -122.38787 | 18 ft | 11 kts | 121° |
| 2026-05-05 02:11 | 37.62178 | -122.38705 | 22 ft | 11 kts | 118° |
| 2026-05-05 02:11 | 37.62144 | -122.38624 | 27 ft | 11 kts | 118° |
| 2026-05-05 02:11 | 37.62110 | -122.38543 | 27 ft | 11 kts | 118° |
| 2026-05-05 02:12 | 37.62076 | -122.38461 | 29 ft | 11 kts | 118° |
| 2026-05-05 02:12 | 37.62007 | -122.38298 | 28 ft | 11 kts | 118° |
| 2026-05-05 02:12 | 37.61972 | -122.38216 | 27 ft | 11 kts | 118° |
| 2026-05-05 02:13 | 37.61938 | -122.38134 | 31 ft | 11 kts | 118° |
| 2026-05-05 02:13 | 37.61904 | -122.38053 | 26 ft | 11 kts | 118° |
| 2026-05-05 02:13 | 37.61871 | -122.37970 | 32 ft | 11 kts | 116° |
| 2026-05-05 02:13 | 37.61844 | -122.37900 | 27 ft | 11 kts | 116° |
| 2026-05-05 02:14 | 37.61814 | -122.37814 | 24 ft | 11 kts | 110° |
| 2026-05-05 02:14 | 37.61788 | -122.37724 | 27 ft | 11 kts | 110° |
| 2026-05-05 02:14 | 37.61767 | -122.37652 | 27 ft | 11 kts | 110° |
| 2026-05-05 02:14 | 37.61740 | -122.37561 | 28 ft | 11 kts | 111° |
| 2026-05-05 02:15 | 37.61703 | -122.37476 | 28 ft | 11 kts | 123° |
| 2026-05-05 02:15 | 37.61666 | -122.37393 | 32 ft | 11 kts | 115° |
| 2026-05-05 02:15 | 37.61635 | -122.37304 | 28 ft | 11 kts | 117° |
| 2026-05-05 02:15 | 37.61599 | -122.37218 | 28 ft | 11 kts | 119° |
| 2026-05-05 02:16 | 37.61561 | -122.37134 | 27 ft | 11 kts | 119° |
| 2026-05-05 02:16 | 37.61524 | -122.37049 | 27 ft | 11 kts | 118° |
| 2026-05-05 02:16 | 37.61487 | -122.36964 | 27 ft | 11 kts | 118° |
| 2026-05-05 02:16 | 37.61443 | -122.36884 | 29 ft | 11 kts | 129° |
| 2026-05-05 02:17 | 37.61392 | -122.36812 | 24 ft | 11 kts | 133° |
| 2026-05-05 02:17 | 37.61347 | -122.36732 | 26 ft | 11 kts | 119° |
| 2026-05-05 02:17 | 37.61310 | -122.36647 | 24 ft | 11 kts | 119° |
| 2026-05-05 02:17 | 37.61273 | -122.36560 | 23 ft | 11 kts | 116° |
| 2026-05-05 02:18 | 37.61238 | -122.36472 | 20 ft | 11 kts | 117° |
| 2026-05-05 02:18 | 37.61202 | -122.36385 | 25 ft | 11 kts | 117° |
| 2026-05-05 02:18 | 37.61167 | -122.36299 | 23 ft | 11 kts | 117° |
| 2026-05-05 02:18 | 37.61132 | -122.36212 | 23 ft | 11 kts | 117° |
| 2026-05-05 02:19 | 37.61096 | -122.36125 | 26 ft | 11 kts | 119° |
| 2026-05-05 02:19 | 37.61058 | -122.36039 | 29 ft | 11 kts | 114° |
| 2026-05-05 02:19 | 37.61067 | -122.35945 | 26 ft | 11 kts | 57° |
| 2026-05-05 02:19 | 37.61131 | -122.35889 | 26 ft | 11 kts | 26° |
| 2026-05-05 02:20 | 37.61171 | -122.35878 | 29 ft | 6 kts | 341° |
| 2026-05-05 02:20 | 37.61201 | -122.35923 | 26 ft | 7 kts | 304° |
| 2026-05-05 02:20 | 37.61212 | -122.35947 | 26 ft | 0 kts | 299° |
| 2026-05-05 02:20 | 37.61229 | -122.35985 | 23 ft | 15 kts | 298° |
| 2026-05-05 02:21 | 37.61393 | -122.36380 | 18 ft | 91 kts | 297° |
| 2026-05-05 02:21 | 37.61812 | -122.37377 | 26 ft | 166 kts | 297° |
| 2026-05-05 02:21 | 37.62452 | -122.38897 | 208 ft | 211 kts | 296° |
| 2026-05-05 02:21 | 37.62887 | -122.40000 | 880 ft | 208 kts | 297° |
| 2026-05-05 02:22 | 37.63444 | -122.41295 | 1694 ft | 212 kts | 298° |
| 2026-05-05 02:22 | 37.64383 | -122.43401 | 2651 ft | 198 kts | 298° |
| 2026-05-05 02:22 | 37.64830 | -122.44400 | 2908 ft | 199 kts | 299° |
| 2026-05-05 02:22 | 37.65530 | -122.45972 | 3038 ft | 212 kts | 298° |
| 2026-05-05 02:23 | 37.66275 | -122.47645 | 3197 ft | 227 kts | 298° |
| 2026-05-05 02:23 | 37.66944 | -122.49516 | 3357 ft | 240 kts | 278° |
| 2026-05-05 02:23 | 37.66714 | -122.51606 | 3556 ft | 251 kts | 240° |
| 2026-05-05 02:23 | 37.65659 | -122.53422 | 3739 ft | 263 kts | 231° |
| 2026-05-05 02:24 | 37.64487 | -122.55208 | 4174 ft | 271 kts | 231° |
| 2026-05-05 02:24 | 37.63273 | -122.57061 | 4737 ft | 276 kts | 231° |
| 2026-05-05 02:24 | 37.62069 | -122.58899 | 5355 ft | 279 kts | 231° |
| 2026-05-05 02:24 | 37.60821 | -122.60810 | 6013 ft | 279 kts | 231° |
| 2026-05-05 02:25 | 37.59572 | -122.62730 | 6591 ft | 283 kts | 231° |
| 2026-05-05 02:25 | 37.58316 | -122.64665 | 7186 ft | 285 kts | 231° |
| 2026-05-05 02:25 | 37.57060 | -122.66604 | 7772 ft | 287 kts | 231° |
| 2026-05-05 02:25 | 37.55795 | -122.68562 | 8342 ft | 290 kts | 231° |
| 2026-05-05 02:26 | 37.54515 | -122.70544 | 8880 ft | 293 kts | 231° |
| 2026-05-05 02:26 | 37.53226 | -122.72543 | 9437 ft | 295 kts | 231° |
| 2026-05-05 02:26 | 37.51927 | -122.74556 | 9979 ft | 297 kts | 231° |
| 2026-05-05 02:26 | 37.50604 | -122.76608 | 10324 ft | 309 kts | 231° |
| 2026-05-05 02:27 | 37.49211 | -122.78769 | 10458 ft | 327 kts | 231° |
| 2026-05-05 02:27 | 37.47739 | -122.81050 | 10614 ft | 345 kts | 231° |
| 2026-05-05 02:27 | 37.46184 | -122.83458 | 10826 ft | 361 kts | 231° |
| 2026-05-05 02:27 | 37.44598 | -122.85912 | 11255 ft | 370 kts | 231° |
| 2026-05-05 02:28 | 37.42959 | -122.88447 | 11807 ft | 375 kts | 231° |
| 2026-05-05 02:28 | 37.41304 | -122.91005 | 12448 ft | 378 kts | 231° |
| 2026-05-05 02:28 | 37.39942 | -122.93108 | 12978 ft | 380 kts | 231° |
| 2026-05-05 02:28 | 37.38248 | -122.95723 | 13601 ft | 383 kts | 231° |
| 2026-05-05 02:29 | 37.36552 | -122.98339 | 14187 ft | 387 kts | 231° |
| 2026-05-05 02:29 | 37.34883 | -123.00910 | 14748 ft | 390 kts | 231° |
| 2026-05-05 02:29 | 37.33158 | -123.03566 | 15335 ft | 393 kts | 231° |
| 2026-05-05 02:29 | 37.31417 | -123.06245 | 15881 ft | 397 kts | 231° |
| 2026-05-05 02:30 | 37.29662 | -123.08943 | 16432 ft | 400 kts | 231° |
| 2026-05-05 02:30 | 37.27896 | -123.11657 | 16961 ft | 403 kts | 231° |
| 2026-05-05 02:30 | 37.26113 | -123.14393 | 17514 ft | 406 kts | 231° |
| 2026-05-05 02:30 | 37.24339 | -123.17115 | 18018 ft | 410 kts | 231° |
| 2026-05-05 02:31 | 37.22526 | -123.19892 | 18532 ft | 413 kts | 231° |
| 2026-05-05 02:31 | 37.20700 | -123.22688 | 19030 ft | 416 kts | 231° |
| 2026-05-05 02:31 | 37.18860 | -123.25503 | 19529 ft | 419 kts | 231° |
| 2026-05-05 02:31 | 37.17004 | -123.28340 | 19997 ft | 422 kts | 231° |
| 2026-05-05 02:32 | 37.15136 | -123.31193 | 20464 ft | 425 kts | 231° |
| 2026-05-05 02:32 | 37.13256 | -123.34062 | 20916 ft | 428 kts | 231° |
| 2026-05-05 02:32 | 37.11359 | -123.36953 | 21370 ft | 431 kts | 231° |
| 2026-05-05 02:32 | 37.09452 | -123.39858 | 21799 ft | 433 kts | 231° |
| 2026-05-05 02:33 | 37.07528 | -123.42786 | 22209 ft | 436 kts | 231° |
| 2026-05-05 02:33 | 37.05594 | -123.45726 | 22638 ft | 439 kts | 231° |
| 2026-05-05 02:33 | 37.03644 | -123.48690 | 23045 ft | 442 kts | 231° |
| 2026-05-05 02:33 | 37.01686 | -123.51662 | 23436 ft | 444 kts | 231° |
| 2026-05-05 02:34 | 36.99710 | -123.54658 | 23825 ft | 447 kts | 231° |
| 2026-05-05 02:34 | 36.97720 | -123.57672 | 24196 ft | 449 kts | 231° |
| 2026-05-05 02:34 | 36.95720 | -123.60700 | 24557 ft | 452 kts | 231° |
| 2026-05-05 02:34 | 36.93710 | -123.63740 | 24919 ft | 454 kts | 231° |
| 2026-05-05 02:35 | 36.91718 | -123.66751 | 25255 ft | 457 kts | 231° |
| 2026-05-05 02:35 | 36.89683 | -123.69822 | 25599 ft | 459 kts | 231° |
| 2026-05-05 02:35 | 36.87643 | -123.72899 | 25931 ft | 461 kts | 231° |
| 2026-05-05 02:35 | 36.85587 | -123.75997 | 26249 ft | 464 kts | 230° |
| 2026-05-05 02:36 | 36.83519 | -123.79110 | 26562 ft | 466 kts | 230° |
| 2026-05-05 02:36 | 36.81440 | -123.82237 | 26875 ft | 468 kts | 230° |
| 2026-05-05 02:36 | 36.79354 | -123.85371 | 27163 ft | 470 kts | 230° |
| 2026-05-05 02:36 | 36.77282 | -123.88482 | 27448 ft | 472 kts | 230° |
| 2026-05-05 02:37 | 36.75172 | -123.91646 | 27724 ft | 474 kts | 230° |
| 2026-05-05 02:37 | 36.73055 | -123.94819 | 27994 ft | 476 kts | 230° |
| 2026-05-05 02:37 | 36.70931 | -123.97999 | 28257 ft | 478 kts | 230° |
| 2026-05-05 02:37 | 36.68842 | -124.01123 | 28494 ft | 480 kts | 230° |
| 2026-05-05 02:38 | 36.66698 | -124.04326 | 28738 ft | 482 kts | 230° |
| 2026-05-05 02:38 | 36.64547 | -124.07537 | 28979 ft | 483 kts | 230° |
| 2026-05-05 02:38 | 36.62388 | -124.10758 | 29183 ft | 485 kts | 230° |
| 2026-05-05 02:38 | 36.60221 | -124.13986 | 29391 ft | 486 kts | 230° |
| 2026-05-05 02:39 | 36.58049 | -124.17218 | 29587 ft | 488 kts | 230° |
| 2026-05-05 02:39 | 36.55868 | -124.20462 | 29787 ft | 489 kts | 230° |
| 2026-05-05 02:39 | 36.53679 | -124.23713 | 29928 ft | 491 kts | 230° |
| 2026-05-05 02:40 | 36.49277 | -124.30244 | 29997 ft | 490 kts | 230° |
| 2026-05-05 02:40 | 36.44935 | -124.36671 | 29996 ft | 487 kts | 230° |
| 2026-05-05 02:41 | 36.40554 | -124.43146 | 30002 ft | 486 kts | 230° |
| 2026-05-05 02:41 | 36.36228 | -124.49526 | 30002 ft | 486 kts | 230° |
| 2026-05-05 02:42 | 36.31863 | -124.55954 | 30001 ft | 487 kts | 230° |
| 2026-05-05 02:42 | 36.27485 | -124.62388 | 29996 ft | 488 kts | 230° |
| 2026-05-05 02:43 | 36.23103 | -124.68818 | 30001 ft | 489 kts | 230° |
| 2026-05-05 02:43 | 36.18699 | -124.75266 | 30002 ft | 489 kts | 230° |
| 2026-05-05 02:44 | 36.14596 | -124.81905 | 30010 ft | 489 kts | 235° |
| 2026-05-05 02:44 | 36.10769 | -124.88880 | 30000 ft | 489 kts | 236° |
| 2026-05-05 02:45 | 36.08867 | -124.92366 | 30003 ft | 489 kts | 236° |